sensor_id;sensor_type;location;lat;lon;timestamp;P1;durP1;ratioP1;P2;durP2;ratioP2
43809;SDS011;29440;48.208;11.162;2023-03-19T00:02:25;9.85;;;4.90;;
43809;SDS011;29440;48.208;11.162;2023-03-19T00:04:51;13.27;;;5.13;;
43809;SDS011;29440;48.208;11.162;2023-03-19T00:07:17;12.80;;;5.20;;
43809;SDS011;29440;48.208;11.162;2023-03-19T00:09:43;12.00;;;5.45;;
43809;SDS011;29440;48.208;11.162;2023-03-19T00:12:12;10.45;;;4.93;;
43809;SDS011;29440;48.208;11.162;2023-03-19T00:14:39;8.02;;;4.35;;
43809;SDS011;29440;48.208;11.162;2023-03-19T00:17:06;8.65;;;4.50;;
43809;SDS011;29440;48.208;11.162;2023-03-19T00:19:31;11.93;;;4.80;;
43809;SDS011;29440;48.208;11.162;2023-03-19T00:21:58;7.70;;;5.03;;
43809;SDS011;29440;48.208;11.162;2023-03-19T00:24:24;13.50;;;6.13;;
43809;SDS011;29440;48.208;11.162;2023-03-19T00:26:50;13.57;;;6.75;;
43809;SDS011;29440;48.208;11.162;2023-03-19T00:29:17;15.13;;;5.90;;
43809;SDS011;29440;48.208;11.162;2023-03-19T00:31:43;11.57;;;5.30;;
43809;SDS011;29440;48.208;11.162;2023-03-19T00:34:10;9.77;;;5.30;;
43809;SDS011;29440;48.208;11.162;2023-03-19T00:36:38;9.88;;;5.85;;
43809;SDS011;29440;48.208;11.162;2023-03-19T00:39:04;10.30;;;6.15;;
43809;SDS011;29440;48.208;11.162;2023-03-19T00:41:30;15.63;;;5.82;;
43809;SDS011;29440;48.208;11.162;2023-03-19T00:43:56;14.15;;;6.68;;
43809;SDS011;29440;48.208;11.162;2023-03-19T00:46:23;10.50;;;5.40;;
43809;SDS011;29440;48.208;11.162;2023-03-19T00:48:49;12.00;;;5.53;;
43809;SDS011;29440;48.208;11.162;2023-03-19T00:51:19;10.23;;;4.78;;
43809;SDS011;29440;48.208;11.162;2023-03-19T00:53:45;6.68;;;4.18;;
43809;SDS011;29440;48.208;11.162;2023-03-19T00:56:12;10.05;;;4.78;;
43809;SDS011;29440;48.208;11.162;2023-03-19T00:58:39;11.15;;;5.03;;
43809;SDS011;29440;48.208;11.162;2023-03-19T01:01:08;9.40;;;4.80;;
43809;SDS011;29440;48.208;11.162;2023-03-19T01:03:36;9.50;;;4.80;;
43809;SDS011;29440;48.208;11.162;2023-03-19T01:06:02;10.55;;;5.10;;
43809;SDS011;29440;48.208;11.162;2023-03-19T01:08:28;7.63;;;4.75;;
43809;SDS011;29440;48.208;11.162;2023-03-19T01:10:55;9.27;;;5.20;;
43809;SDS011;29440;48.208;11.162;2023-03-19T01:13:20;12.25;;;5.63;;
43809;SDS011;29440;48.208;11.162;2023-03-19T01:15:50;11.52;;;5.30;;
43809;SDS011;29440;48.208;11.162;2023-03-19T01:18:17;8.70;;;4.30;;
43809;SDS011;29440;48.208;11.162;2023-03-19T01:20:43;9.50;;;5.32;;
43809;SDS011;29440;48.208;11.162;2023-03-19T01:23:09;19.60;;;7.70;;
43809;SDS011;29440;48.208;11.162;2023-03-19T01:25:35;11.05;;;6.13;;
43809;SDS011;29440;48.208;11.162;2023-03-19T01:28:03;10.15;;;4.90;;
43809;SDS011;29440;48.208;11.162;2023-03-19T01:30:29;15.15;;;5.80;;
43809;SDS011;29440;48.208;11.162;2023-03-19T01:32:54;11.95;;;5.10;;
43809;SDS011;29440;48.208;11.162;2023-03-19T01:35:20;8.90;;;4.80;;
43809;SDS011;29440;48.208;11.162;2023-03-19T01:37:46;9.63;;;5.50;;
43809;SDS011;29440;48.208;11.162;2023-03-19T01:40:12;11.93;;;5.20;;
43809;SDS011;29440;48.208;11.162;2023-03-19T01:45:43;9.63;;;4.70;;
43809;SDS011;29440;48.208;11.162;2023-03-19T01:48:23;9.38;;;4.47;;
43809;SDS011;29440;48.208;11.162;2023-03-19T01:50:52;9.50;;;4.70;;
43809;SDS011;29440;48.208;11.162;2023-03-19T01:53:21;10.95;;;4.55;;
43809;SDS011;29440;48.208;11.162;2023-03-19T01:55:50;13.18;;;5.68;;
43809;SDS011;29440;48.208;11.162;2023-03-19T01:58:19;10.55;;;5.38;;
43809;SDS011;29440;48.208;11.162;2023-03-19T02:00:45;10.18;;;4.97;;
43809;SDS011;29440;48.208;11.162;2023-03-19T02:03:11;11.52;;;5.07;;
43809;SDS011;29440;48.208;11.162;2023-03-19T02:05:39;7.28;;;4.10;;
43809;SDS011;29440;48.208;11.162;2023-03-19T02:08:08;8.45;;;5.00;;
43809;SDS011;29440;48.208;11.162;2023-03-19T02:10:37;9.00;;;5.15;;
43809;SDS011;29440;48.208;11.162;2023-03-19T02:13:05;11.25;;;5.75;;
43809;SDS011;29440;48.208;11.162;2023-03-19T02:15:30;12.60;;;5.68;;
43809;SDS011;29440;48.208;11.162;2023-03-19T02:17:57;7.20;;;4.13;;
43809;SDS011;29440;48.208;11.162;2023-03-19T02:20:31;9.55;;;4.95;;
43809;SDS011;29440;48.208;11.162;2023-03-19T02:23:12;12.00;;;5.40;;
43809;SDS011;29440;48.208;11.162;2023-03-19T02:28:31;10.90;;;4.88;;
43809;SDS011;29440;48.208;11.162;2023-03-19T02:30:58;10.60;;;5.38;;
43809;SDS011;29440;48.208;11.162;2023-03-19T02:33:24;13.50;;;5.85;;
43809;SDS011;29440;48.208;11.162;2023-03-19T02:35:50;15.45;;;6.35;;
43809;SDS011;29440;48.208;11.162;2023-03-19T02:38:17;9.52;;;5.63;;
43809;SDS011;29440;48.208;11.162;2023-03-19T02:40:48;9.48;;;5.38;;
43809;SDS011;29440;48.208;11.162;2023-03-19T02:43:24;12.75;;;5.80;;
43809;SDS011;29440;48.208;11.162;2023-03-19T02:45:51;10.48;;;5.32;;
43809;SDS011;29440;48.208;11.162;2023-03-19T02:48:17;10.50;;;4.43;;
43809;SDS011;29440;48.208;11.162;2023-03-19T02:50:43;7.28;;;4.28;;
43809;SDS011;29440;48.208;11.162;2023-03-19T02:53:09;8.30;;;4.93;;
43809;SDS011;29440;48.208;11.162;2023-03-19T02:55:36;12.68;;;5.03;;
43809;SDS011;29440;48.208;11.162;2023-03-19T02:58:01;9.00;;;5.22;;
43809;SDS011;29440;48.208;11.162;2023-03-19T03:00:27;13.27;;;5.53;;
43809;SDS011;29440;48.208;11.162;2023-03-19T03:02:54;9.20;;;5.15;;
43809;SDS011;29440;48.208;11.162;2023-03-19T03:05:22;13.52;;;5.90;;
43809;SDS011;29440;48.208;11.162;2023-03-19T03:07:47;9.80;;;5.53;;
43809;SDS011;29440;48.208;11.162;2023-03-19T03:10:13;14.60;;;6.10;;
43809;SDS011;29440;48.208;11.162;2023-03-19T03:12:40;12.25;;;6.25;;
43809;SDS011;29440;48.208;11.162;2023-03-19T03:15:06;10.38;;;6.47;;
43809;SDS011;29440;48.208;11.162;2023-03-19T03:17:34;11.80;;;6.70;;
43809;SDS011;29440;48.208;11.162;2023-03-19T03:20:02;17.05;;;7.97;;
43809;SDS011;29440;48.208;11.162;2023-03-19T03:22:29;14.18;;;7.57;;
43809;SDS011;29440;48.208;11.162;2023-03-19T03:24:55;16.90;;;9.75;;
43809;SDS011;29440;48.208;11.162;2023-03-19T03:27:21;16.13;;;9.10;;
43809;SDS011;29440;48.208;11.162;2023-03-19T03:29:46;12.18;;;6.53;;
43809;SDS011;29440;48.208;11.162;2023-03-19T03:32:12;12.00;;;6.80;;
43809;SDS011;29440;48.208;11.162;2023-03-19T03:34:38;11.82;;;6.47;;
43809;SDS011;29440;48.208;11.162;2023-03-19T03:37:04;9.10;;;5.18;;
43809;SDS011;29440;48.208;11.162;2023-03-19T03:39:30;11.27;;;5.20;;
43809;SDS011;29440;48.208;11.162;2023-03-19T03:41:57;21.15;;;11.82;;
43809;SDS011;29440;48.208;11.162;2023-03-19T03:44:23;22.85;;;12.73;;
43809;SDS011;29440;48.208;11.162;2023-03-19T03:46:48;16.15;;;8.80;;
43809;SDS011;29440;48.208;11.162;2023-03-19T03:49:15;18.90;;;9.90;;
43809;SDS011;29440;48.208;11.162;2023-03-19T03:51:41;19.67;;;10.48;;
43809;SDS011;29440;48.208;11.162;2023-03-19T03:54:07;24.88;;;12.98;;
43809;SDS011;29440;48.208;11.162;2023-03-19T03:56:32;25.02;;;12.73;;
43809;SDS011;29440;48.208;11.162;2023-03-19T03:58:58;21.00;;;10.95;;
43809;SDS011;29440;48.208;11.162;2023-03-19T04:01:25;18.67;;;10.68;;
43809;SDS011;29440;48.208;11.162;2023-03-19T04:03:51;9.27;;;5.63;;
43809;SDS011;29440;48.208;11.162;2023-03-19T04:06:18;12.63;;;6.70;;
43809;SDS011;29440;48.208;11.162;2023-03-19T04:08:46;15.10;;;6.85;;
43809;SDS011;29440;48.208;11.162;2023-03-19T04:11:12;13.95;;;6.05;;
43809;SDS011;29440;48.208;11.162;2023-03-19T04:13:39;13.88;;;7.55;;
43809;SDS011;29440;48.208;11.162;2023-03-19T04:16:05;15.40;;;7.72;;
43809;SDS011;29440;48.208;11.162;2023-03-19T04:18:32;13.70;;;6.25;;
43809;SDS011;29440;48.208;11.162;2023-03-19T04:20:58;11.75;;;6.15;;
43809;SDS011;29440;48.208;11.162;2023-03-19T04:23:24;11.55;;;6.32;;
43809;SDS011;29440;48.208;11.162;2023-03-19T04:25:50;9.77;;;5.78;;
43809;SDS011;29440;48.208;11.162;2023-03-19T04:28:15;12.15;;;5.53;;
43809;SDS011;29440;48.208;11.162;2023-03-19T04:30:41;7.88;;;4.70;;
43809;SDS011;29440;48.208;11.162;2023-03-19T04:33:09;10.00;;;5.50;;
43809;SDS011;29440;48.208;11.162;2023-03-19T04:35:35;12.23;;;5.35;;
43809;SDS011;29440;48.208;11.162;2023-03-19T04:38:10;11.82;;;5.32;;
43809;SDS011;29440;48.208;11.162;2023-03-19T04:40:36;9.18;;;5.68;;
43809;SDS011;29440;48.208;11.162;2023-03-19T04:43:01;11.32;;;5.53;;
43809;SDS011;29440;48.208;11.162;2023-03-19T04:45:27;12.13;;;6.00;;
43809;SDS011;29440;48.208;11.162;2023-03-19T04:47:52;10.15;;;5.75;;
43809;SDS011;29440;48.208;11.162;2023-03-19T04:50:18;18.30;;;6.85;;
43809;SDS011;29440;48.208;11.162;2023-03-19T04:52:44;10.38;;;6.45;;
43809;SDS011;29440;48.208;11.162;2023-03-19T04:55:09;11.85;;;5.72;;
43809;SDS011;29440;48.208;11.162;2023-03-19T04:57:35;13.02;;;6.47;;
43809;SDS011;29440;48.208;11.162;2023-03-19T05:00:00;14.30;;;7.07;;
43809;SDS011;29440;48.208;11.162;2023-03-19T05:02:26;11.27;;;6.35;;
43809;SDS011;29440;48.208;11.162;2023-03-19T05:04:52;11.13;;;6.40;;
43809;SDS011;29440;48.208;11.162;2023-03-19T05:07:17;11.73;;;5.90;;
43809;SDS011;29440;48.208;11.162;2023-03-19T05:09:43;13.23;;;7.00;;
43809;SDS011;29440;48.208;11.162;2023-03-19T05:12:10;12.60;;;6.45;;
43809;SDS011;29440;48.208;11.162;2023-03-19T05:14:36;13.02;;;6.72;;
43809;SDS011;29440;48.208;11.162;2023-03-19T05:17:02;11.98;;;7.07;;
43809;SDS011;29440;48.208;11.162;2023-03-19T05:19:28;13.75;;;7.10;;
43809;SDS011;29440;48.208;11.162;2023-03-19T05:21:53;12.32;;;6.65;;
43809;SDS011;29440;48.208;11.162;2023-03-19T05:24:21;15.15;;;7.18;;
43809;SDS011;29440;48.208;11.162;2023-03-19T05:26:47;12.85;;;6.85;;
43809;SDS011;29440;48.208;11.162;2023-03-19T05:29:12;13.75;;;7.13;;
43809;SDS011;29440;48.208;11.162;2023-03-19T05:31:38;11.07;;;6.95;;
43809;SDS011;29440;48.208;11.162;2023-03-19T05:34:04;11.85;;;6.75;;
43809;SDS011;29440;48.208;11.162;2023-03-19T05:36:30;18.33;;;7.47;;
43809;SDS011;29440;48.208;11.162;2023-03-19T05:38:56;11.50;;;6.90;;
43809;SDS011;29440;48.208;11.162;2023-03-19T05:41:21;12.30;;;7.40;;
43809;SDS011;29440;48.208;11.162;2023-03-19T05:43:47;12.50;;;6.82;;
43809;SDS011;29440;48.208;11.162;2023-03-19T05:46:12;14.10;;;7.15;;
43809;SDS011;29440;48.208;11.162;2023-03-19T05:48:38;10.88;;;6.25;;
43809;SDS011;29440;48.208;11.162;2023-03-19T05:51:04;11.38;;;6.45;;
43809;SDS011;29440;48.208;11.162;2023-03-19T05:53:29;15.65;;;6.40;;
43809;SDS011;29440;48.208;11.162;2023-03-19T05:55:55;10.73;;;6.10;;
43809;SDS011;29440;48.208;11.162;2023-03-19T05:58:21;11.98;;;6.13;;
43809;SDS011;29440;48.208;11.162;2023-03-19T06:00:46;13.63;;;6.65;;
43809;SDS011;29440;48.208;11.162;2023-03-19T06:03:15;11.38;;;5.88;;
43809;SDS011;29440;48.208;11.162;2023-03-19T06:05:41;12.23;;;6.13;;
43809;SDS011;29440;48.208;11.162;2023-03-19T06:08:07;11.82;;;6.50;;
43809;SDS011;29440;48.208;11.162;2023-03-19T06:10:35;13.80;;;6.97;;
43809;SDS011;29440;48.208;11.162;2023-03-19T06:13:01;12.82;;;6.13;;
43809;SDS011;29440;48.208;11.162;2023-03-19T06:15:26;9.93;;;6.05;;
43809;SDS011;29440;48.208;11.162;2023-03-19T06:17:52;8.68;;;5.25;;
43809;SDS011;29440;48.208;11.162;2023-03-19T06:20:17;8.57;;;5.22;;
43809;SDS011;29440;48.208;11.162;2023-03-19T06:22:43;7.32;;;5.00;;
43809;SDS011;29440;48.208;11.162;2023-03-19T06:25:09;7.90;;;4.13;;
43809;SDS011;29440;48.208;11.162;2023-03-19T06:27:35;6.72;;;4.05;;
43809;SDS011;29440;48.208;11.162;2023-03-19T06:30:00;10.10;;;4.20;;
43809;SDS011;29440;48.208;11.162;2023-03-19T06:32:26;6.93;;;4.05;;
43809;SDS011;29440;48.208;11.162;2023-03-19T06:34:51;7.25;;;3.90;;
43809;SDS011;29440;48.208;11.162;2023-03-19T06:37:17;7.10;;;4.15;;
43809;SDS011;29440;48.208;11.162;2023-03-19T06:39:43;11.43;;;5.13;;
43809;SDS011;29440;48.208;11.162;2023-03-19T06:42:08;6.50;;;3.65;;
43809;SDS011;29440;48.208;11.162;2023-03-19T06:44:34;6.75;;;3.60;;
43809;SDS011;29440;48.208;11.162;2023-03-19T06:46:59;8.02;;;3.75;;
43809;SDS011;29440;48.208;11.162;2023-03-19T06:49:25;8.05;;;3.53;;
43809;SDS011;29440;48.208;11.162;2023-03-19T06:51:51;7.95;;;3.47;;
43809;SDS011;29440;48.208;11.162;2023-03-19T06:54:16;5.28;;;3.05;;
43809;SDS011;29440;48.208;11.162;2023-03-19T06:56:42;7.82;;;4.15;;
43809;SDS011;29440;48.208;11.162;2023-03-19T06:59:08;7.22;;;3.50;;
43809;SDS011;29440;48.208;11.162;2023-03-19T07:01:36;10.77;;;3.63;;
43809;SDS011;29440;48.208;11.162;2023-03-19T07:04:04;7.05;;;3.47;;
43809;SDS011;29440;48.208;11.162;2023-03-19T07:06:29;4.43;;;3.20;;
43809;SDS011;29440;48.208;11.162;2023-03-19T07:08:55;5.90;;;3.05;;
43809;SDS011;29440;48.208;11.162;2023-03-19T07:11:21;6.13;;;3.33;;
43809;SDS011;29440;48.208;11.162;2023-03-19T07:13:46;5.10;;;3.17;;
43809;SDS011;29440;48.208;11.162;2023-03-19T07:16:12;5.35;;;3.38;;
43809;SDS011;29440;48.208;11.162;2023-03-19T07:18:37;7.13;;;3.72;;
43809;SDS011;29440;48.208;11.162;2023-03-19T07:21:03;5.45;;;2.90;;
43809;SDS011;29440;48.208;11.162;2023-03-19T07:23:28;5.72;;;3.28;;
43809;SDS011;29440;48.208;11.162;2023-03-19T07:25:54;5.57;;;3.63;;
43809;SDS011;29440;48.208;11.162;2023-03-19T07:28:19;8.15;;;3.50;;
43809;SDS011;29440;48.208;11.162;2023-03-19T07:30:45;7.20;;;3.30;;
43809;SDS011;29440;48.208;11.162;2023-03-19T07:33:11;7.57;;;3.17;;
43809;SDS011;29440;48.208;11.162;2023-03-19T07:35:36;7.32;;;3.42;;
43809;SDS011;29440;48.208;11.162;2023-03-19T07:38:02;6.25;;;3.20;;
43809;SDS011;29440;48.208;11.162;2023-03-19T07:40:27;6.22;;;3.78;;
43809;SDS011;29440;48.208;11.162;2023-03-19T07:42:53;9.13;;;3.85;;
43809;SDS011;29440;48.208;11.162;2023-03-19T07:45:19;5.15;;;3.33;;
43809;SDS011;29440;48.208;11.162;2023-03-19T07:47:44;5.00;;;3.35;;
43809;SDS011;29440;48.208;11.162;2023-03-19T07:50:11;6.22;;;3.60;;
43809;SDS011;29440;48.208;11.162;2023-03-19T07:52:36;8.82;;;3.53;;
43809;SDS011;29440;48.208;11.162;2023-03-19T07:55:02;6.28;;;3.22;;
43809;SDS011;29440;48.208;11.162;2023-03-19T07:57:28;8.23;;;4.07;;
43809;SDS011;29440;48.208;11.162;2023-03-19T07:59:53;6.63;;;3.97;;
43809;SDS011;29440;48.208;11.162;2023-03-19T08:02:19;8.27;;;4.00;;
43809;SDS011;29440;48.208;11.162;2023-03-19T08:04:44;5.15;;;3.70;;
43809;SDS011;29440;48.208;11.162;2023-03-19T08:07:10;9.75;;;4.45;;
43809;SDS011;29440;48.208;11.162;2023-03-19T08:09:36;8.23;;;4.22;;
43809;SDS011;29440;48.208;11.162;2023-03-19T08:12:03;9.27;;;4.65;;
43809;SDS011;29440;48.208;11.162;2023-03-19T08:14:29;8.55;;;4.22;;
43809;SDS011;29440;48.208;11.162;2023-03-19T08:16:55;8.60;;;4.30;;
43809;SDS011;29440;48.208;11.162;2023-03-19T08:19:20;10.43;;;5.43;;
43809;SDS011;29440;48.208;11.162;2023-03-19T08:21:46;9.55;;;4.57;;
43809;SDS011;29440;48.208;11.162;2023-03-19T08:24:12;8.25;;;4.72;;
43809;SDS011;29440;48.208;11.162;2023-03-19T08:26:38;7.95;;;4.20;;
43809;SDS011;29440;48.208;11.162;2023-03-19T08:29:03;13.98;;;6.95;;
43809;SDS011;29440;48.208;11.162;2023-03-19T08:31:30;9.02;;;5.50;;
43809;SDS011;29440;48.208;11.162;2023-03-19T08:33:56;7.82;;;5.22;;
43809;SDS011;29440;48.208;11.162;2023-03-19T08:36:24;9.07;;;4.65;;
43809;SDS011;29440;48.208;11.162;2023-03-19T08:38:50;12.57;;;5.32;;
43809;SDS011;29440;48.208;11.162;2023-03-19T08:41:19;9.30;;;5.53;;
43809;SDS011;29440;48.208;11.162;2023-03-19T08:43:45;9.25;;;5.05;;
43809;SDS011;29440;48.208;11.162;2023-03-19T08:46:10;10.38;;;5.32;;
43809;SDS011;29440;48.208;11.162;2023-03-19T08:48:36;9.00;;;5.47;;
43809;SDS011;29440;48.208;11.162;2023-03-19T08:51:02;9.98;;;5.55;;
43809;SDS011;29440;48.208;11.162;2023-03-19T08:53:28;9.20;;;6.07;;
43809;SDS011;29440;48.208;11.162;2023-03-19T08:55:56;8.77;;;5.60;;
43809;SDS011;29440;48.208;11.162;2023-03-19T08:58:23;11.30;;;5.55;;
43809;SDS011;29440;48.208;11.162;2023-03-19T09:00:50;11.10;;;5.57;;
43809;SDS011;29440;48.208;11.162;2023-03-19T09:03:17;8.13;;;5.10;;
43809;SDS011;29440;48.208;11.162;2023-03-19T09:05:43;8.25;;;5.07;;
43809;SDS011;29440;48.208;11.162;2023-03-19T09:08:09;9.15;;;4.85;;
43809;SDS011;29440;48.208;11.162;2023-03-19T09:10:35;9.43;;;4.88;;
43809;SDS011;29440;48.208;11.162;2023-03-19T09:13:01;9.48;;;4.53;;
43809;SDS011;29440;48.208;11.162;2023-03-19T09:15:27;7.90;;;4.50;;
43809;SDS011;29440;48.208;11.162;2023-03-19T09:17:52;7.57;;;4.28;;
43809;SDS011;29440;48.208;11.162;2023-03-19T09:20:18;6.47;;;4.40;;
43809;SDS011;29440;48.208;11.162;2023-03-19T09:22:44;6.80;;;4.68;;
43809;SDS011;29440;48.208;11.162;2023-03-19T09:25:10;8.38;;;5.20;;
43809;SDS011;29440;48.208;11.162;2023-03-19T09:27:36;5.78;;;3.90;;
43809;SDS011;29440;48.208;11.162;2023-03-19T09:30:02;6.22;;;3.75;;
43809;SDS011;29440;48.208;11.162;2023-03-19T09:32:28;6.90;;;3.88;;
43809;SDS011;29440;48.208;11.162;2023-03-19T09:34:54;6.53;;;3.95;;
43809;SDS011;29440;48.208;11.162;2023-03-19T09:37:20;7.00;;;4.53;;
43809;SDS011;29440;48.208;11.162;2023-03-19T09:39:46;8.50;;;3.97;;
43809;SDS011;29440;48.208;11.162;2023-03-19T09:42:18;5.60;;;3.83;;
43809;SDS011;29440;48.208;11.162;2023-03-19T09:45:11;7.60;;;4.10;;
43809;SDS011;29440;48.208;11.162;2023-03-19T09:47:38;7.15;;;4.05;;
43809;SDS011;29440;48.208;11.162;2023-03-19T09:50:09;10.05;;;6.18;;
43809;SDS011;29440;48.208;11.162;2023-03-19T09:52:41;3.65;;;3.00;;
43809;SDS011;29440;48.208;11.162;2023-03-19T09:58:08;5.35;;;2.58;;
43809;SDS011;29440;48.208;11.162;2023-03-19T10:00:39;3.50;;;1.85;;
43809;SDS011;29440;48.208;11.162;2023-03-19T10:17:15;3.40;;;2.30;;
43809;SDS011;29440;48.208;11.162;2023-03-19T10:22:44;4.10;;;1.33;;
43809;SDS011;29440;48.208;11.162;2023-03-19T10:25:21;4.35;;;1.55;;
43809;SDS011;29440;48.208;11.162;2023-03-19T10:27:55;2.15;;;1.67;;
43809;SDS011;29440;48.208;11.162;2023-03-19T10:30:25;3.17;;;1.75;;
43809;SDS011;29440;48.208;11.162;2023-03-19T10:32:56;2.92;;;1.52;;
43809;SDS011;29440;48.208;11.162;2023-03-19T10:35:46;3.65;;;1.52;;
43809;SDS011;29440;48.208;11.162;2023-03-19T10:38:16;3.00;;;1.23;;
43809;SDS011;29440;48.208;11.162;2023-03-19T10:43:52;3.22;;;1.50;;
43809;SDS011;29440;48.208;11.162;2023-03-19T10:46:20;5.00;;;1.67;;
43809;SDS011;29440;48.208;11.162;2023-03-19T10:48:46;16.50;;;6.05;;
43809;SDS011;29440;48.208;11.162;2023-03-19T10:51:15;7.38;;;3.15;;
43809;SDS011;29440;48.208;11.162;2023-03-19T10:56:16;3.70;;;1.38;;
43809;SDS011;29440;48.208;11.162;2023-03-19T10:58:54;1.77;;;1.00;;
43809;SDS011;29440;48.208;11.162;2023-03-19T11:01:35;4.20;;;1.40;;
43809;SDS011;29440;48.208;11.162;2023-03-19T11:04:15;3.30;;;1.33;;
43809;SDS011;29440;48.208;11.162;2023-03-19T11:06:47;2.58;;;1.25;;
43809;SDS011;29440;48.208;11.162;2023-03-19T11:09:18;6.72;;;1.50;;
43809;SDS011;29440;48.208;11.162;2023-03-19T11:11:49;3.00;;;1.35;;
43809;SDS011;29440;48.208;11.162;2023-03-19T11:14:36;3.92;;;1.50;;
43809;SDS011;29440;48.208;11.162;2023-03-19T11:19:31;5.03;;;1.73;;
43809;SDS011;29440;48.208;11.162;2023-03-19T11:24:37;3.13;;;1.30;;
43809;SDS011;29440;48.208;11.162;2023-03-19T11:27:05;4.57;;;1.40;;
43809;SDS011;29440;48.208;11.162;2023-03-19T11:29:34;2.80;;;1.50;;
43809;SDS011;29440;48.208;11.162;2023-03-19T11:40:26;2.30;;;1.20;;
43809;SDS011;29440;48.208;11.162;2023-03-19T11:42:47;2.30;;;1.23;;
43809;SDS011;29440;48.208;11.162;2023-03-19T11:51:14;4.82;;;1.27;;
43809;SDS011;29440;48.208;11.162;2023-03-19T11:59:09;3.08;;;1.25;;
43809;SDS011;29440;48.208;11.162;2023-03-19T12:18:54;4.22;;;1.58;;
43809;SDS011;29440;48.208;11.162;2023-03-19T12:30:03;4.22;;;1.13;;
43809;SDS011;29440;48.208;11.162;2023-03-19T12:35:27;5.18;;;1.45;;
43809;SDS011;29440;48.208;11.162;2023-03-19T12:38:19;4.38;;;1.20;;
43809;SDS011;29440;48.208;11.162;2023-03-19T12:43:33;2.28;;;1.05;;
43809;SDS011;29440;48.208;11.162;2023-03-19T12:46:13;3.70;;;1.42;;
43809;SDS011;29440;48.208;11.162;2023-03-19T12:48:53;8.30;;;3.03;;
43809;SDS011;29440;48.208;11.162;2023-03-19T12:51:45;5.07;;;1.60;;
43809;SDS011;29440;48.208;11.162;2023-03-19T13:02:21;2.65;;;1.38;;
43809;SDS011;29440;48.208;11.162;2023-03-19T13:04:58;3.00;;;1.42;;
43809;SDS011;29440;48.208;11.162;2023-03-19T13:10:36;2.80;;;1.45;;
43809;SDS011;29440;48.208;11.162;2023-03-19T13:13:23;2.92;;;1.35;;
43809;SDS011;29440;48.208;11.162;2023-03-19T13:15:59;3.17;;;1.13;;
43809;SDS011;29440;48.208;11.162;2023-03-19T13:18:59;2.22;;;1.20;;
43809;SDS011;29440;48.208;11.162;2023-03-19T13:21:27;5.00;;;1.40;;
43809;SDS011;29440;48.208;11.162;2023-03-19T13:26:49;3.63;;;1.50;;
43809;SDS011;29440;48.208;11.162;2023-03-19T13:29:21;5.70;;;1.48;;
43809;SDS011;29440;48.208;11.162;2023-03-19T13:31:49;2.53;;;1.42;;
43809;SDS011;29440;48.208;11.162;2023-03-19T13:34:19;5.30;;;1.60;;
43809;SDS011;29440;48.208;11.162;2023-03-19T13:39:26;2.30;;;1.30;;
43809;SDS011;29440;48.208;11.162;2023-03-19T13:42:08;4.32;;;1.40;;
43809;SDS011;29440;48.208;11.162;2023-03-19T13:44:48;3.00;;;1.20;;
43809;SDS011;29440;48.208;11.162;2023-03-19T13:52:40;5.07;;;1.63;;
43809;SDS011;29440;48.208;11.162;2023-03-19T13:56:09;2.55;;;1.50;;
43809;SDS011;29440;48.208;11.162;2023-03-19T13:58:13;5.47;;;1.40;;
43809;SDS011;29440;48.208;11.162;2023-03-19T14:01:02;3.40;;;1.60;;
43809;SDS011;29440;48.208;11.162;2023-03-19T14:03:32;3.88;;;1.48;;
43809;SDS011;29440;48.208;11.162;2023-03-19T14:06:01;2.80;;;1.65;;
43809;SDS011;29440;48.208;11.162;2023-03-19T14:08:47;4.38;;;1.50;;
43809;SDS011;29440;48.208;11.162;2023-03-19T14:11:28;4.45;;;2.30;;
43809;SDS011;29440;48.208;11.162;2023-03-19T14:13:55;4.10;;;2.22;;
43809;SDS011;29440;48.208;11.162;2023-03-19T14:16:32;4.50;;;1.98;;
43809;SDS011;29440;48.208;11.162;2023-03-19T14:19:01;3.20;;;1.70;;
43809;SDS011;29440;48.208;11.162;2023-03-19T14:26:52;8.05;;;2.08;;
43809;SDS011;29440;48.208;11.162;2023-03-19T14:29:19;4.38;;;2.08;;
43809;SDS011;29440;48.208;11.162;2023-03-19T14:31:50;3.78;;;2.03;;
43809;SDS011;29440;48.208;11.162;2023-03-19T14:34:31;3.90;;;2.00;;
43809;SDS011;29440;48.208;11.162;2023-03-19T14:39:41;4.90;;;2.40;;
43809;SDS011;29440;48.208;11.162;2023-03-19T14:42:15;3.65;;;2.40;;
43809;SDS011;29440;48.208;11.162;2023-03-19T14:53:16;2.40;;;1.63;;
43809;SDS011;29440;48.208;11.162;2023-03-19T14:55:50;4.05;;;2.17;;
43809;SDS011;29440;48.208;11.162;2023-03-19T14:58:18;5.63;;;2.00;;
43809;SDS011;29440;48.208;11.162;2023-03-19T15:00:45;3.25;;;1.80;;
43809;SDS011;29440;48.208;11.162;2023-03-19T15:03:21;2.78;;;1.88;;
43809;SDS011;29440;48.208;11.162;2023-03-19T15:05:55;5.93;;;1.92;;
43809;SDS011;29440;48.208;11.162;2023-03-19T15:08:24;3.92;;;1.80;;
43809;SDS011;29440;48.208;11.162;2023-03-19T15:11:16;4.60;;;2.15;;
43809;SDS011;29440;48.208;11.162;2023-03-19T15:17:02;4.65;;;2.30;;
43809;SDS011;29440;48.208;11.162;2023-03-19T15:19:50;3.15;;;2.00;;
43809;SDS011;29440;48.208;11.162;2023-03-19T15:22:25;3.40;;;1.92;;
43809;SDS011;29440;48.208;11.162;2023-03-19T15:24:56;4.63;;;1.92;;
43809;SDS011;29440;48.208;11.162;2023-03-19T15:27:33;4.85;;;2.60;;
43809;SDS011;29440;48.208;11.162;2023-03-19T15:30:00;5.50;;;2.28;;
43809;SDS011;29440;48.208;11.162;2023-03-19T15:32:35;4.85;;;1.83;;
43809;SDS011;29440;48.208;11.162;2023-03-19T15:35:02;4.43;;;2.45;;
43809;SDS011;29440;48.208;11.162;2023-03-19T15:37:31;4.45;;;2.17;;
43809;SDS011;29440;48.208;11.162;2023-03-19T15:40:02;3.05;;;1.98;;
43809;SDS011;29440;48.208;11.162;2023-03-19T15:42:36;3.28;;;2.05;;
43809;SDS011;29440;48.208;11.162;2023-03-19T15:45:04;6.55;;;2.25;;
43809;SDS011;29440;48.208;11.162;2023-03-19T15:47:33;5.18;;;2.20;;
43809;SDS011;29440;48.208;11.162;2023-03-19T15:52:37;10.32;;;2.35;;
43809;SDS011;29440;48.208;11.162;2023-03-19T15:55:05;5.40;;;2.35;;
43809;SDS011;29440;48.208;11.162;2023-03-19T15:57:35;2.70;;;1.85;;
43809;SDS011;29440;48.208;11.162;2023-03-19T16:00:06;4.07;;;2.20;;
43809;SDS011;29440;48.208;11.162;2023-03-19T16:02:38;4.47;;;1.98;;
43809;SDS011;29440;48.208;11.162;2023-03-19T16:05:05;7.57;;;2.55;;
43809;SDS011;29440;48.208;11.162;2023-03-19T16:07:38;5.75;;;2.65;;
43809;SDS011;29440;48.208;11.162;2023-03-19T16:12:55;6.82;;;2.58;;
43809;SDS011;29440;48.208;11.162;2023-03-19T16:17:48;5.78;;;3.00;;
43809;SDS011;29440;48.208;11.162;2023-03-19T16:20:14;9.52;;;4.53;;
43809;SDS011;29440;48.208;11.162;2023-03-19T16:22:40;9.23;;;3.55;;
43809;SDS011;29440;48.208;11.162;2023-03-19T16:25:16;8.00;;;3.08;;
43809;SDS011;29440;48.208;11.162;2023-03-19T16:27:43;5.55;;;2.85;;
43809;SDS011;29440;48.208;11.162;2023-03-19T16:30:21;7.25;;;3.40;;
43809;SDS011;29440;48.208;11.162;2023-03-19T16:35:24;6.18;;;3.30;;
43809;SDS011;29440;48.208;11.162;2023-03-19T16:37:53;9.02;;;3.58;;
43809;SDS011;29440;48.208;11.162;2023-03-19T16:40:45;5.60;;;3.13;;
43809;SDS011;29440;48.208;11.162;2023-03-19T16:43:15;8.63;;;4.38;;
43809;SDS011;29440;48.208;11.162;2023-03-19T16:45:42;10.32;;;4.40;;
43809;SDS011;29440;48.208;11.162;2023-03-19T16:48:09;7.13;;;3.75;;
43809;SDS011;29440;48.208;11.162;2023-03-19T16:50:36;7.50;;;3.50;;
43809;SDS011;29440;48.208;11.162;2023-03-19T16:53:26;7.35;;;3.55;;
43809;SDS011;29440;48.208;11.162;2023-03-19T16:55:53;7.00;;;2.75;;
43809;SDS011;29440;48.208;11.162;2023-03-19T16:58:25;7.28;;;3.70;;